Latest Coastal Weather Observations for Proserpine

IDQ60701

Issued at 11:32 pm EST Friday 30 September 2016 (issued every 10 minutes, with the page automatically refreshed every 10 minutes)

About coastal observations | Map of coastal stations | Coastal observations for QLD | Marine services | Other Formats
Station Details ID: 033247 Name: PROSERPINE AIRPORT Lat: -20.49 Lon: 148.56 Height: 19.7 m
Data from the previous 72 hours. | See also: Recent months at Proserpine
Date/Time
EST
Temp
°C
Wind Pressure Rain since
9am
mm
Weather Cloud Vis
km
Sea
Height
m
Swell
Dir  Spd
kts
Gust
kts
hPa Trend Height
m
Period
s
Dir
30/11:30pm 21.3 S 3 4 1012.5 - 0.0 - Partly cloudy 10 - - - -
30/11:00pm 21.3 SSW 4 6 1012.6 - 0.0 - Cloudy 10 - - - -
30/10:30pm 21.0 W 3 4 1012.6 - 0.0 - Partly cloudy 10 - - - -
30/10:23pm 21.1 WNW 3 4 1012.6 - 0.0 - Partly cloudy 10 - - - -
30/10:00pm 20.7 W 5 6 1012.6 - 0.0 - - 10 - - - -
30/09:30pm 21.4 WSW 4 5 1012.2 - 0.0 - - 10 - - - -
30/09:00pm 21.6 SSW 5 6 1011.8 - 0.0 - - 10 - - - -
30/08:30pm 22.2 SE 1 5 1011.5 - 0.0 - - 10 - - - -
30/08:00pm 22.9 NE 1 4 1011.3 - 0.0 - - 10 - - - -
30/07:30pm 23.7 SE 3 4 1010.9 - 0.0 - - 10 - - - -
30/07:00pm 23.8 E 4 5 1010.5 - 0.0 - Partly cloudy 10 - - - -
30/06:30pm 24.6 CALM 0 4 1010.0 - 0.0 - - 10 - - - -
30/06:00pm 25.7 NNE 5 7 1009.4 - 0.0 - - 10 - - - -
30/05:30pm 27.5 ENE 6 9 1008.9 - 0.0 - - 10 - - - -
30/05:00pm 29.3 E 6 8 1008.6 - 0.0 - - 10 - - - -
30/04:30pm 31.6 W 7 10 1008.2 - 0.0 - - 10 - - - -
30/04:00pm 30.6 NE 5 10 1007.9 - 0.0 - Partly cloudy 10 - - - -
30/03:30pm 29.9 ESE 8 12 1007.9 - 0.0 - - 10 - - - -
30/03:00pm 30.5 S 3 5 1008.0 - 0.0 - Mostly clear 10 - - - -
30/02:30pm 30.7 ESE 7 12 1008.1 - 0.0 - Partly cloudy 10 - - - -
30/02:00pm 30.7 WSW 8 12 1008.4 - 0.0 - Partly cloudy 10 - - - -
30/01:30pm 31.4 WSW 8 12 1008.8 - 0.0 - Cloudy 10 - - - -
30/01:00pm 30.1 WSW 5 9 1009.1 - 0.0 - Partly cloudy 10 - - - -
30/12:30pm 30.2 WSW 9 15 1009.5 - 0.0 - - 10 - - - -
30/12:00pm 30.3 WSW 12 18 1009.9 - 0.0 - - 10 - - - -
30/11:30am 29.8 W 10 14 1010.5 - 0.0 - - 10 - - - -
30/11:00am 29.3 SW 7 11 1010.8 - 0.0 - - 10 - - - -
30/10:30am 28.3 SW 11 15 1011.1 - 0.0 - Partly cloudy 10 - - - -
30/10:00am 27.7 SW 10 14 1011.1 - 0.0 - Partly cloudy 10 - - - -
30/09:57am 27.1 SW 10 14 1011.1 - 0.0 - Partly cloudy 10 - - - -
30/09:46am 26.0 WSW 5 11 1011.1 - 0.0 - Partly cloudy 10 - - - -
30/09:30am 26.9 WSW 3 6 1010.9 - 0.0 - Partly cloudy 10 - - - -
30/09:00am 25.6 NNW 5 9 1011.1 - 15.4 - - 10 - - - -
30/08:30am 24.5 N 6 9 1011.1 - 15.4 - Partly cloudy 10 - - - -
30/08:00am 22.8 N 7 9 1011.0 - 15.4 - Partly cloudy 10 - - - -
30/07:56am 23.1 N 6 9 1010.9 - 15.4 - Partly cloudy 10 - - - -
30/07:40am 22.6 N 7 9 1010.9 - 15.4 - Partly cloudy 10 - - - -
30/07:30am 22.6 N 5 9 1010.7 - 15.4 - Partly cloudy 10 - - - -
30/07:00am 22.5 N 6 8 1010.3 - 15.4 - Partly cloudy 10 - - - -
30/06:30am 22.6 NNE 5 6 1009.9 - 15.4 - Partly cloudy 10 - - - -
30/06:11am 22.6 NNE 3 6 1009.4 - 15.4 - Partly cloudy 10 - - - -
30/06:10am 22.6 NNE 4 6 1009.4 - 15.4 - Partly cloudy 10 - - - -
30/06:00am 22.6 N 5 8 1009.0 - 15.2 Rain Cloudy 5 - - - -
30/05:32am 22.9 WNW 5 7 1008.9 - 11.0 - Partly cloudy 6 - - - -
30/05:30am 22.9 NW 4 7 1008.9 - 11.0 - Partly cloudy 7 - - - -
30/05:04am 23.0 WSW 6 12 1008.8 - 10.0 - Partly cloudy 10 - - - -
30/05:00am 22.6 SW 5 12 1008.8 - 10.0 - Partly cloudy 10 - - - -
30/04:44am 22.7 NW 2 4 1008.8 - 9.4 - Partly cloudy 5 - - - -
30/04:41am 22.6 NW 2 4 1008.7 - 8.4 - Partly cloudy 10 - - - -
30/04:30am 22.6 NNW 4 5 1008.6 - 8.4 - Partly cloudy 10 - - - -
30/04:11am 22.6 N 4 5 1008.3 - 8.4 - Partly cloudy 10 - - - -
30/04:00am 22.7 NNW 4 6 1008.3 - 8.4 - Partly cloudy 10 - - - -
30/03:30am 22.6 NNW 5 10 1008.3 - 8.2 - Partly cloudy 10 - - - -
30/03:12am 22.4 W 5 7 1008.5 - 8.0 - Partly cloudy 10 - - - -
30/03:00am 22.4 NNW 3 4 1008.5 - 7.8 - Cloudy 10 - - - -
30/02:34am 22.5 NNW 5 7 1008.6 - 7.8 - Partly cloudy 10 - - - -
30/02:30am 22.5 NNW 5 7 1008.7 - 7.8 - Partly cloudy 10 - - - -
30/02:00am 22.4 WNW 8 10 1009.3 - 7.8 - Partly cloudy 10 - - - -
30/01:57am 22.3 NW 8 10 1009.4 - 7.8 - Partly cloudy 10 - - - -
30/01:43am 22.3 NNW 6 7 1009.2 - 7.8 - Partly cloudy 10 - - - -
30/01:31am 22.3 NW 5 7 1009.5 - 7.8 - Partly cloudy 10 - - - -
30/01:30am 22.4 NW 5 7 1009.5 - 7.6 - Partly cloudy 10 - - - -
30/01:00am 22.3 NNW 7 10 1009.6 - 7.6 - Partly cloudy 10 - - - -
30/12:30am 22.4 NNW 7 10 1009.9 - 7.6 - Partly cloudy 10 - - - -
30/12:00am 22.5 NW 10 14 1010.2 - 7.6 - Cloudy 10 - - - -
 
Date/Time
EST
Temp
°C
Wind Pressure Rain since
9am
mm
Weather Cloud Vis
km
Sea
Height
m
Swell
Dir  Spd
kts
Gust
kts
hPa Trend Height
m
Period
s
Dir
29/11:30pm 22.4 NNW 7 10 1010.0 - 7.6 - Partly cloudy 10 - - - -
29/11:08pm 22.5 NW 9 13 1009.9 - 7.6 - Partly cloudy 10 - - - -
29/11:00pm 22.5 NNW 9 11 1009.8 - 7.6 - Partly cloudy 10 - - - -
29/10:30pm 22.6 NNW 10 14 1010.3 - 7.6 - Partly cloudy 10 - - - -
29/10:02pm 22.6 NNW 11 15 1010.0 - 7.2 - Partly cloudy 8 - - - -
29/10:00pm 22.6 NNW 11 15 1010.1 - 7.0 - Partly cloudy 8 - - - -
29/09:34pm 22.6 NNW 10 13 1010.2 - 4.8 - Partly cloudy 10 - - - -
29/09:30pm 22.6 NNW 10 14 1010.0 - 4.4 - Partly cloudy 10 - - - -
29/09:00pm 22.7 NW 8 12 1010.2 - 3.0 Rain Cloudy 10 - - - -
29/08:59pm 22.7 NW 8 12 1010.2 - 3.0 - Partly cloudy 10 - - - -
29/08:30pm 22.6 NNW 11 15 1009.7 - 2.2 - Partly cloudy 10 - - - -
29/08:00pm 22.5 NW 9 12 1009.1 - 2.0 - Partly cloudy 10 - - - -
29/07:30pm 22.5 NNW 8 11 1008.7 - 2.0 - Partly cloudy 10 - - - -
29/07:00pm 22.6 N 7 11 1008.7 - 1.6 - Partly cloudy 10 - - - -
29/06:30pm 22.8 NW 6 7 1008.9 - 1.0 - Partly cloudy 10 - - - -
29/06:00pm 23.4 NW 6 8 1008.6 - 0.2 Rain Cloudy 10 - - - -
29/05:30pm 24.8 NNW 7 11 1008.2 - 0.0 - Partly cloudy 10 - - - -
29/05:00pm 25.2 NNW 8 12 1007.8 - 0.0 - Partly cloudy 10 - - - -
29/04:30pm 25.4 N 7 11 1007.2 - 0.0 - Partly cloudy 10 - - - -
29/04:00pm 25.9 NNW 11 16 1006.9 - 0.0 - Cloudy 10 - - - -
29/03:30pm 25.8 NNW 13 18 1007.2 - 0.0 - Cloudy 10 - - - -
29/03:00pm 26.0 NNW 11 15 1007.4 - 0.0 - Cloudy 10 - - - -
29/02:30pm 26.1 NNW 13 18 1007.7 - 0.0 - Cloudy 10 - - - -
29/02:00pm 26.5 NNW 13 18 1008.2 - 0.0 - Cloudy 10 - - - -
29/01:30pm 26.5 NNW 10 13 1008.8 - 0.0 - Partly cloudy 10 - - - -
29/01:00pm 26.7 NNW 9 14 1009.3 - 0.0 - Cloudy 10 - - - -
29/12:30pm 26.4 NNW 9 15 1009.7 - 0.0 - Cloudy 10 - - - -
29/12:00pm 26.8 NNW 9 14 1010.1 - 0.0 - Cloudy 10 - - - -
29/11:30am 26.4 NW 5 7 1010.6 - 0.0 - Cloudy 10 - - - -
29/11:00am 26.0 NNW 3 7 1010.9 - 0.0 - Partly cloudy 10 - - - -
29/10:30am 26.0 NW 3 6 1011.4 - 0.0 - Partly cloudy 10 - - - -
29/10:00am 25.5 NNE 4 7 1011.6 - 0.0 - Partly cloudy 10 - - - -
29/09:46am 25.8 NW 5 7 1011.7 - 0.0 - Partly cloudy 10 - - - -
29/09:30am 25.3 SSW 4 6 1012.0 - 0.0 - Partly cloudy 10 - - - -
29/09:00am 24.1 SSE 4 5 1012.0 - 0.0 - Cloudy 10 - - - -
29/08:30am 21.4 WSW 2 5 1012.6 - 0.0 - Partly cloudy 10 - - - -
29/08:00am 20.9 CALM 0 0 1012.6 - 0.0 - Partly cloudy 10 - - - -
29/07:30am 20.1 CALM 0 0 1012.4 - 0.0 - Cloudy 10 - - - -
29/07:00am 19.5 CALM 0 0 1012.0 - 0.0 - Cloudy 10 - - - -
29/06:30am 19.4 CALM 0 0 1011.6 - 0.0 - Cloudy 10 - - - -
29/06:00am 18.8 SSW 4 6 1011.5 - 0.0 - Cloudy 10 - - - -
29/05:30am 18.2 CALM 0 3 1011.4 - 0.0 - Cloudy 10 - - - -
29/05:00am 17.8 SSW 3 4 1011.2 - 0.0 - Partly cloudy 10 - - - -
29/04:30am 18.0 CALM 0 4 1010.8 - 0.0 - Cloudy 10 - - - -
29/04:00am 18.2 CALM 0 3 1011.1 - 0.0 - Cloudy 10 - - - -
29/03:30am 18.0 CALM 0 0 1011.4 - 0.0 - Partly cloudy 10 - - - -
29/03:00am 17.8 SW 3 5 1011.6 - 0.0 - Cloudy 10 - - - -
29/02:30am 17.2 SSW 3 5 1011.6 - 0.0 - Partly cloudy 10 - - - -
29/02:00am 16.3 SW 4 5 1012.0 - 0.0 - Partly cloudy 10 - - - -
29/01:30am 16.4 WSW 1 4 1012.0 - 0.0 - - 10 - - - -
29/01:00am 16.2 SW 4 5 1012.1 - 0.0 - - 10 - - - -
29/12:30am 16.4 SSW 6 7 1012.4 - 0.0 - - 10 - - - -
29/12:00am 16.7 SSW 4 5 1012.6 - 0.0 - - 10 - - - -
 
Date/Time
EST
Temp
°C
Wind Pressure Rain since
9am
mm
Weather Cloud Vis
km
Sea
Height
m
Swell
Dir  Spd
kts
Gust
kts
hPa Trend Height
m
Period
s
Dir
28/11:30pm 16.3 WSW 3 4 1012.7 - 0.0 - - 10 - - - -
28/11:00pm 17.6 SSW 3 4 1012.7 - 0.0 - - 10 - - - -
28/10:30pm 17.4 SSW 7 8 1013.2 - 0.0 - - 10 - - - -
28/10:00pm 18.0 WSW 3 4 1013.1 - 0.0 - - 10 - - - -
28/09:30pm 18.2 S 3 4 1013.3 - 0.0 - - 10 - - - -
28/09:00pm 18.4 SW 3 4 1013.5 - 0.0 - - 10 - - - -
28/08:30pm 19.0 CALM 0 3 1013.2 - 0.0 - - 10 - - - -
28/08:00pm 19.8 S 4 4 1013.2 - 0.0 - - 10 - - - -
28/07:30pm 20.5 SSE 4 5 1013.1 - 0.0 - - 10 - - - -
28/07:00pm 20.9 ESE 5 6 1012.8 - 0.0 - - 10 - - - -
28/06:30pm 21.5 ESE 6 8 1012.5 - 0.0 - - 10 - - - -
28/06:00pm 22.5 SE 7 9 1012.1 - 0.0 - - 10 - - - -
28/05:30pm 24.1 SE 9 12 1011.8 - 0.0 - - 10 - - - -
28/05:00pm 25.2 ESE 10 14 1011.6 - 0.0 - - 10 - - - -
28/04:30pm 25.9 ESE 11 15 1011.5 - 0.0 - - 10 - - - -
28/04:00pm 27.2 ESE 11 15 1011.2 - 0.0 - - 10 - - - -
28/03:30pm 27.2 ESE 11 16 1010.9 - 0.0 - - 10 - - - -
28/03:00pm 27.8 ESE 10 13 1011.2 - 0.0 - - 10 - - - -
28/02:30pm 29.0 E 9 15 1011.4 - 0.0 - - 10 - - - -
28/02:00pm 28.6 E 8 13 1011.9 - 0.0 - - 10 - - - -
28/01:30pm 28.6 ESE 9 14 1012.4 - 0.0 - - 10 - - - -
28/01:00pm 28.2 ESE 10 15 1013.0 - 0.0 - - 10 - - - -
28/12:30pm 27.2 E 9 13 1013.4 - 0.0 - - 10 - - - -
28/12:00pm 27.6 E 8 13 1013.7 - 0.0 - - 10 - - - -
28/11:30am 28.1 ESE 9 14 1014.3 - 0.0 - Partly cloudy 10 - - - -
28/11:00am 27.3 E 8 13 1014.8 - 0.0 - Partly cloudy 10 - - - -
28/10:30am 26.8 ESE 9 13 1015.4 - 0.0 - Partly cloudy 10 - - - -
28/10:00am 27.3 ESE 9 17 1015.6 - 0.0 - Partly cloudy 10 - - - -
28/09:30am 26.0 ESE 9 14 1015.7 - 0.0 - Partly cloudy 10 - - - -
28/09:00am 24.8 ESE 9 12 1015.6 - 0.0 - Mostly clear 10 - - - -
28/08:30am 24.7 ESE 6 10 1015.6 - 0.0 - - 10 - - - -
28/08:00am 23.5 S 7 10 1015.4 - 0.0 - - 10 - - - -
28/07:30am 20.8 SSW 2 5 1015.1 - 0.0 - - 10 - - - -
28/07:00am 18.6 CALM 0 0 1014.9 - 0.0 - - 10 - - - -
28/06:30am 16.7 WSW 2 4 1014.5 - 0.0 - - 10 - - - -
28/06:00am 15.9 SW 1 4 1014.2 - 0.0 - - 10 - - - -
28/05:30am 16.3 CALM 0 0 1013.8 - 0.0 - - 10 - - - -
28/05:00am 16.5 CALM 0 0 1013.5 - 0.0 - Partly cloudy 10 - - - -
28/04:30am 16.3 WSW 2 3 1013.1 - 0.0 - Partly cloudy 10 - - - -
28/04:00am 17.1 WSW 4 5 1013.0 - 0.0 - - 10 - - - -
28/03:30am 17.0 SSW 3 4 1012.9 - 0.0 - - 10 - - - -
28/03:00am 16.8 SSW 6 7 1013.1 - 0.0 - - 10 - - - -
28/02:30am 16.6 CALM 0 0 1012.8 - 0.0 - - 10 - - - -
28/02:00am 17.1 CALM 0 0 1013.1 - 0.0 - - 10 - - - -
28/01:30am 17.8 CALM 0 0 1013.7 - 0.0 - - 10 - - - -
28/01:00am 17.7 CALM 0 0 1014.1 - 0.0 - - 10 - - - -
28/12:30am 17.8 CALM 0 0 1014.1 - 0.0 - - 10 - - - -
28/12:00am 18.5 CALM 0 0 1014.0 - 0.0 - - 10 - - - -

Other Formats:

Comma delimited format used in spreadsheet applications
http://www.bom.gov.au/fwo/IDQ60701/IDQ60701.94365.axf

JavaScript Object Notation format (JSON) in row-major order
http://www.bom.gov.au/fwo/IDQ60701/IDQ60701.94365.json